sensor_id;sensor_type;location;lat;lon;timestamp;temperature;humidity
15357;DHT22;7778;48.792;9.260;2023-01-23T00:01:48;0.50;99.90
15357;DHT22;7778;48.792;9.260;2023-01-23T00:04:34;0.60;99.90
15357;DHT22;7778;48.792;9.260;2023-01-23T00:07:20;0.80;99.90
15357;DHT22;7778;48.792;9.260;2023-01-23T00:10:06;0.80;99.90
15357;DHT22;7778;48.792;9.260;2023-01-23T00:12:52;0.80;99.90
15357;DHT22;7778;48.792;9.260;2023-01-23T00:15:42;0.70;99.90
15357;DHT22;7778;48.792;9.260;2023-01-23T00:18:28;0.60;99.90
15357;DHT22;7778;48.792;9.260;2023-01-23T00:21:15;0.70;99.90
15357;DHT22;7778;48.792;9.260;2023-01-23T00:24:03;0.60;99.90
15357;DHT22;7778;48.792;9.260;2023-01-23T00:26:49;0.60;99.90
15357;DHT22;7778;48.792;9.260;2023-01-23T00:29:35;0.60;99.90
15357;DHT22;7778;48.792;9.260;2023-01-23T00:32:22;0.60;99.90
15357;DHT22;7778;48.792;9.260;2023-01-23T00:35:08;0.60;99.90
15357;DHT22;7778;48.792;9.260;2023-01-23T00:37:54;0.70;99.90
15357;DHT22;7778;48.792;9.260;2023-01-23T00:40:40;0.60;99.90
15357;DHT22;7778;48.792;9.260;2023-01-23T00:43:27;0.50;99.90
15357;DHT22;7778;48.792;9.260;2023-01-23T00:46:14;0.60;99.90
15357;DHT22;7778;48.792;9.260;2023-01-23T00:49:01;0.60;99.90
15357;DHT22;7778;48.792;9.260;2023-01-23T00:51:47;0.50;99.90
15357;DHT22;7778;48.792;9.260;2023-01-23T00:54:34;0.50;99.90
15357;DHT22;7778;48.792;9.260;2023-01-23T00:57:21;0.40;99.90
15357;DHT22;7778;48.792;9.260;2023-01-23T01:00:08;0.40;99.90
15357;DHT22;7778;48.792;9.260;2023-01-23T01:02:54;0.30;99.90
15357;DHT22;7778;48.792;9.260;2023-01-23T01:05:41;0.30;99.90
15357;DHT22;7778;48.792;9.260;2023-01-23T01:08:27;0.30;99.90
15357;DHT22;7778;48.792;9.260;2023-01-23T01:11:12;0.30;99.90
15357;DHT22;7778;48.792;9.260;2023-01-23T01:13:58;0.20;99.90
15357;DHT22;7778;48.792;9.260;2023-01-23T01:16:44;0.20;99.90
15357;DHT22;7778;48.792;9.260;2023-01-23T01:19:29;0.10;99.90
15357;DHT22;7778;48.792;9.260;2023-01-23T01:22:16;0.10;99.90
15357;DHT22;7778;48.792;9.260;2023-01-23T01:25:02;0.10;99.90
15357;DHT22;7778;48.792;9.260;2023-01-23T01:27:48;0.00;99.90
15357;DHT22;7778;48.792;9.260;2023-01-23T01:30:33;0.10;99.90
15357;DHT22;7778;48.792;9.260;2023-01-23T01:33:20;0.10;99.90
15357;DHT22;7778;48.792;9.260;2023-01-23T01:36:08;0.10;99.90
15357;DHT22;7778;48.792;9.260;2023-01-23T01:38:55;0.10;99.90
15357;DHT22;7778;48.792;9.260;2023-01-23T01:41:41;0.10;99.90
15357;DHT22;7778;48.792;9.260;2023-01-23T01:44:26;0.20;99.90
15357;DHT22;7778;48.792;9.260;2023-01-23T01:47:12;0.20;99.90
15357;DHT22;7778;48.792;9.260;2023-01-23T01:50:02;0.20;99.90
15357;DHT22;7778;48.792;9.260;2023-01-23T01:52:49;0.30;99.90
15357;DHT22;7778;48.792;9.260;2023-01-23T01:55:37;0.20;99.90
15357;DHT22;7778;48.792;9.260;2023-01-23T01:58:24;0.30;99.90
15357;DHT22;7778;48.792;9.260;2023-01-23T02:01:10;0.30;99.90
15357;DHT22;7778;48.792;9.260;2023-01-23T02:03:59;0.30;99.90
15357;DHT22;7778;48.792;9.260;2023-01-23T02:06:48;0.40;99.90
15357;DHT22;7778;48.792;9.260;2023-01-23T02:09:35;0.30;99.90
15357;DHT22;7778;48.792;9.260;2023-01-23T02:12:23;0.30;99.90
15357;DHT22;7778;48.792;9.260;2023-01-23T02:15:09;0.30;99.90
15357;DHT22;7778;48.792;9.260;2023-01-23T02:17:55;0.30;99.90
15357;DHT22;7778;48.792;9.260;2023-01-23T02:20:41;0.30;99.90
15357;DHT22;7778;48.792;9.260;2023-01-23T02:23:36;0.40;99.90
15357;DHT22;7778;48.792;9.260;2023-01-23T02:26:30;0.40;99.90
15357;DHT22;7778;48.792;9.260;2023-01-23T02:29:20;0.50;99.90
15357;DHT22;7778;48.792;9.260;2023-01-23T02:32:05;0.30;99.90
15357;DHT22;7778;48.792;9.260;2023-01-23T02:34:53;0.40;99.90
15357;DHT22;7778;48.792;9.260;2023-01-23T02:37:45;0.40;99.90
15357;DHT22;7778;48.792;9.260;2023-01-23T02:40:32;0.40;99.90
15357;DHT22;7778;48.792;9.260;2023-01-23T02:43:24;0.40;99.90
15357;DHT22;7778;48.792;9.260;2023-01-23T02:46:11;0.40;99.90
15357;DHT22;7778;48.792;9.260;2023-01-23T02:48:58;0.40;99.90
15357;DHT22;7778;48.792;9.260;2023-01-23T02:51:44;0.30;99.90
15357;DHT22;7778;48.792;9.260;2023-01-23T02:54:30;0.40;99.90
15357;DHT22;7778;48.792;9.260;2023-01-23T02:57:15;0.40;99.90
15357;DHT22;7778;48.792;9.260;2023-01-23T03:00:03;0.40;99.90
15357;DHT22;7778;48.792;9.260;2023-01-23T03:03:02;0.40;99.90
15357;DHT22;7778;48.792;9.260;2023-01-23T03:05:49;0.30;99.90
15357;DHT22;7778;48.792;9.260;2023-01-23T03:08:34;0.40;99.90
15357;DHT22;7778;48.792;9.260;2023-01-23T03:11:32;0.40;99.90
15357;DHT22;7778;48.792;9.260;2023-01-23T03:14:20;0.40;99.90
15357;DHT22;7778;48.792;9.260;2023-01-23T03:17:08;0.40;99.90
15357;DHT22;7778;48.792;9.260;2023-01-23T03:19:54;0.40;99.90
15357;DHT22;7778;48.792;9.260;2023-01-23T03:22:40;0.40;99.90
15357;DHT22;7778;48.792;9.260;2023-01-23T03:25:26;0.50;99.90
15357;DHT22;7778;48.792;9.260;2023-01-23T03:28:11;0.60;99.90
15357;DHT22;7778;48.792;9.260;2023-01-23T03:31:11;0.40;99.90
15357;DHT22;7778;48.792;9.260;2023-01-23T03:33:59;0.40;99.90
15357;DHT22;7778;48.792;9.260;2023-01-23T03:36:45;0.40;99.90
15357;DHT22;7778;48.792;9.260;2023-01-23T03:39:30;0.40;99.90
15357;DHT22;7778;48.792;9.260;2023-01-23T03:42:34;0.50;99.90
15357;DHT22;7778;48.792;9.260;2023-01-23T03:45:20;0.50;99.90
15357;DHT22;7778;48.792;9.260;2023-01-23T03:48:06;0.60;99.90
15357;DHT22;7778;48.792;9.260;2023-01-23T03:50:53;0.50;99.90
15357;DHT22;7778;48.792;9.260;2023-01-23T03:53:38;0.50;99.90
15357;DHT22;7778;48.792;9.260;2023-01-23T03:56:24;0.50;99.90
15357;DHT22;7778;48.792;9.260;2023-01-23T03:59:10;0.50;99.90
15357;DHT22;7778;48.792;9.260;2023-01-23T04:01:55;0.50;99.90
15357;DHT22;7778;48.792;9.260;2023-01-23T04:04:41;0.50;99.90
15357;DHT22;7778;48.792;9.260;2023-01-23T04:07:27;0.50;99.90
15357;DHT22;7778;48.792;9.260;2023-01-23T04:10:13;0.40;99.90
15357;DHT22;7778;48.792;9.260;2023-01-23T04:12:59;0.40;99.90
15357;DHT22;7778;48.792;9.260;2023-01-23T04:15:44;0.50;99.90
15357;DHT22;7778;48.792;9.260;2023-01-23T04:18:31;0.40;99.90
15357;DHT22;7778;48.792;9.260;2023-01-23T04:21:17;0.50;99.90
15357;DHT22;7778;48.792;9.260;2023-01-23T04:24:05;0.50;99.90
15357;DHT22;7778;48.792;9.260;2023-01-23T04:26:51;0.50;99.90
15357;DHT22;7778;48.792;9.260;2023-01-23T04:29:37;0.50;99.90
15357;DHT22;7778;48.792;9.260;2023-01-23T04:32:22;0.50;99.90
15357;DHT22;7778;48.792;9.260;2023-01-23T04:35:08;0.50;99.90
15357;DHT22;7778;48.792;9.260;2023-01-23T04:37:54;0.50;99.90
15357;DHT22;7778;48.792;9.260;2023-01-23T04:40:41;0.50;99.90
15357;DHT22;7778;48.792;9.260;2023-01-23T04:43:26;0.50;99.90
15357;DHT22;7778;48.792;9.260;2023-01-23T04:46:12;0.40;99.90
15357;DHT22;7778;48.792;9.260;2023-01-23T04:48:57;0.50;99.90
15357;DHT22;7778;48.792;9.260;2023-01-23T04:51:43;0.50;99.90
15357;DHT22;7778;48.792;9.260;2023-01-23T04:54:30;0.40;99.90
15357;DHT22;7778;48.792;9.260;2023-01-23T04:57:17;0.50;99.90
15357;DHT22;7778;48.792;9.260;2023-01-23T05:00:04;0.40;99.90
15357;DHT22;7778;48.792;9.260;2023-01-23T05:02:50;0.50;99.90
15357;DHT22;7778;48.792;9.260;2023-01-23T05:05:36;0.60;99.90
15357;DHT22;7778;48.792;9.260;2023-01-23T05:08:21;0.70;99.90
15357;DHT22;7778;48.792;9.260;2023-01-23T05:11:07;0.70;99.90
15357;DHT22;7778;48.792;9.260;2023-01-23T05:13:54;0.70;99.90
15357;DHT22;7778;48.792;9.260;2023-01-23T05:16:39;0.70;99.90
15357;DHT22;7778;48.792;9.260;2023-01-23T05:19:25;0.80;99.90
15357;DHT22;7778;48.792;9.260;2023-01-23T05:22:10;0.80;99.90
15357;DHT22;7778;48.792;9.260;2023-01-23T05:24:56;0.80;99.90
15357;DHT22;7778;48.792;9.260;2023-01-23T05:27:41;0.90;99.90
15357;DHT22;7778;48.792;9.260;2023-01-23T05:30:28;0.90;99.90
15357;DHT22;7778;48.792;9.260;2023-01-23T05:33:14;0.90;99.90
15357;DHT22;7778;48.792;9.260;2023-01-23T05:35:59;1.10;99.90
15357;DHT22;7778;48.792;9.260;2023-01-23T05:38:45;1.00;99.90
15357;DHT22;7778;48.792;9.260;2023-01-23T05:41:31;1.00;99.90
15357;DHT22;7778;48.792;9.260;2023-01-23T05:44:16;1.00;99.90
15357;DHT22;7778;48.792;9.260;2023-01-23T05:47:03;1.10;99.90
15357;DHT22;7778;48.792;9.260;2023-01-23T05:49:49;1.10;99.90
15357;DHT22;7778;48.792;9.260;2023-01-23T05:52:35;1.10;99.90
15357;DHT22;7778;48.792;9.260;2023-01-23T05:55:20;1.10;99.90
15357;DHT22;7778;48.792;9.260;2023-01-23T05:58:06;1.00;99.90
15357;DHT22;7778;48.792;9.260;2023-01-23T06:00:52;1.10;99.90
15357;DHT22;7778;48.792;9.260;2023-01-23T06:03:39;1.10;99.90
15357;DHT22;7778;48.792;9.260;2023-01-23T06:06:24;1.00;99.90
15357;DHT22;7778;48.792;9.260;2023-01-23T06:09:10;1.00;99.90
15357;DHT22;7778;48.792;9.260;2023-01-23T06:11:56;1.10;99.90
15357;DHT22;7778;48.792;9.260;2023-01-23T06:14:41;1.10;99.90
15357;DHT22;7778;48.792;9.260;2023-01-23T06:17:27;1.20;99.90
15357;DHT22;7778;48.792;9.260;2023-01-23T06:20:14;1.00;99.90
15357;DHT22;7778;48.792;9.260;2023-01-23T06:23:00;1.00;99.90
15357;DHT22;7778;48.792;9.260;2023-01-23T06:25:46;0.90;99.90
15357;DHT22;7778;48.792;9.260;2023-01-23T06:28:31;0.90;99.90
15357;DHT22;7778;48.792;9.260;2023-01-23T06:31:17;0.90;99.90
15357;DHT22;7778;48.792;9.260;2023-01-23T06:34:02;0.80;99.90
15357;DHT22;7778;48.792;9.260;2023-01-23T06:36:49;0.80;99.90
15357;DHT22;7778;48.792;9.260;2023-01-23T06:39:34;0.70;99.90
15357;DHT22;7778;48.792;9.260;2023-01-23T06:42:20;0.70;99.90
15357;DHT22;7778;48.792;9.260;2023-01-23T06:45:07;0.70;99.90
15357;DHT22;7778;48.792;9.260;2023-01-23T06:47:54;0.70;99.90
15357;DHT22;7778;48.792;9.260;2023-01-23T06:50:40;0.70;99.90
15357;DHT22;7778;48.792;9.260;2023-01-23T06:53:27;0.70;99.90
15357;DHT22;7778;48.792;9.260;2023-01-23T06:56:13;0.70;99.90
15357;DHT22;7778;48.792;9.260;2023-01-23T06:58:59;0.70;99.90
15357;DHT22;7778;48.792;9.260;2023-01-23T07:01:44;0.70;99.90
15357;DHT22;7778;48.792;9.260;2023-01-23T07:04:30;0.70;99.90
15357;DHT22;7778;48.792;9.260;2023-01-23T07:07:18;0.70;99.90
15357;DHT22;7778;48.792;9.260;2023-01-23T07:10:06;0.80;99.90
15357;DHT22;7778;48.792;9.260;2023-01-23T07:12:53;0.90;99.90
15357;DHT22;7778;48.792;9.260;2023-01-23T07:15:39;1.10;99.90
15357;DHT22;7778;48.792;9.260;2023-01-23T07:18:24;0.90;99.90
15357;DHT22;7778;48.792;9.260;2023-01-23T07:21:11;1.00;99.90
15357;DHT22;7778;48.792;9.260;2023-01-23T07:23:56;1.00;99.90
15357;DHT22;7778;48.792;9.260;2023-01-23T07:26:43;1.00;99.90
15357;DHT22;7778;48.792;9.260;2023-01-23T07:29:29;1.00;99.90
15357;DHT22;7778;48.792;9.260;2023-01-23T07:32:15;1.00;99.90
15357;DHT22;7778;48.792;9.260;2023-01-23T07:35:01;1.10;99.90
15357;DHT22;7778;48.792;9.260;2023-01-23T07:37:46;1.20;99.90
15357;DHT22;7778;48.792;9.260;2023-01-23T07:40:32;1.30;99.90
15357;DHT22;7778;48.792;9.260;2023-01-23T07:43:19;1.30;99.90
15357;DHT22;7778;48.792;9.260;2023-01-23T07:46:05;1.30;99.90
15357;DHT22;7778;48.792;9.260;2023-01-23T07:48:51;1.30;99.90
15357;DHT22;7778;48.792;9.260;2023-01-23T07:51:37;1.30;99.90
15357;DHT22;7778;48.792;9.260;2023-01-23T07:54:23;1.30;99.90
15357;DHT22;7778;48.792;9.260;2023-01-23T07:57:08;1.40;99.90
15357;DHT22;7778;48.792;9.260;2023-01-23T07:59:55;1.30;99.90
15357;DHT22;7778;48.792;9.260;2023-01-23T08:02:41;1.30;99.90
15357;DHT22;7778;48.792;9.260;2023-01-23T08:05:27;1.20;99.90
15357;DHT22;7778;48.792;9.260;2023-01-23T08:08:12;1.30;99.90
15357;DHT22;7778;48.792;9.260;2023-01-23T08:10:58;1.50;99.90
15357;DHT22;7778;48.792;9.260;2023-01-23T08:13:48;1.50;99.90
15357;DHT22;7778;48.792;9.260;2023-01-23T08:16:36;1.50;99.90
15357;DHT22;7778;48.792;9.260;2023-01-23T08:19:22;1.50;99.90
15357;DHT22;7778;48.792;9.260;2023-01-23T08:22:11;1.50;99.90
15357;DHT22;7778;48.792;9.260;2023-01-23T08:24:57;1.40;99.90
15357;DHT22;7778;48.792;9.260;2023-01-23T08:27:43;1.40;99.90
15357;DHT22;7778;48.792;9.260;2023-01-23T08:30:28;1.40;99.90
15357;DHT22;7778;48.792;9.260;2023-01-23T08:33:15;1.40;99.90
15357;DHT22;7778;48.792;9.260;2023-01-23T08:36:01;1.50;99.90
15357;DHT22;7778;48.792;9.260;2023-01-23T08:38:48;1.40;99.90
15357;DHT22;7778;48.792;9.260;2023-01-23T08:41:34;1.40;99.90
15357;DHT22;7778;48.792;9.260;2023-01-23T08:44:20;1.40;99.90
15357;DHT22;7778;48.792;9.260;2023-01-23T08:47:06;1.40;99.90
15357;DHT22;7778;48.792;9.260;2023-01-23T08:49:54;1.60;99.90
15357;DHT22;7778;48.792;9.260;2023-01-23T08:52:40;1.50;99.90
15357;DHT22;7778;48.792;9.260;2023-01-23T08:55:26;1.60;99.90
15357;DHT22;7778;48.792;9.260;2023-01-23T08:58:12;1.80;99.90
15357;DHT22;7778;48.792;9.260;2023-01-23T09:00:58;1.90;99.90
15357;DHT22;7778;48.792;9.260;2023-01-23T09:03:44;2.00;99.90
15357;DHT22;7778;48.792;9.260;2023-01-23T09:06:31;1.90;99.90
15357;DHT22;7778;48.792;9.260;2023-01-23T09:09:17;1.80;99.90
15357;DHT22;7778;48.792;9.260;2023-01-23T09:12:03;2.00;99.90
15357;DHT22;7778;48.792;9.260;2023-01-23T09:14:49;1.90;99.90
15357;DHT22;7778;48.792;9.260;2023-01-23T09:17:35;1.90;99.90
15357;DHT22;7778;48.792;9.260;2023-01-23T09:20:21;2.10;99.90
15357;DHT22;7778;48.792;9.260;2023-01-23T09:23:10;1.70;99.90
15357;DHT22;7778;48.792;9.260;2023-01-23T09:26:01;1.60;99.90
15357;DHT22;7778;48.792;9.260;2023-01-23T09:28:48;1.50;99.90
15357;DHT22;7778;48.792;9.260;2023-01-23T09:31:33;1.40;99.90
15357;DHT22;7778;48.792;9.260;2023-01-23T09:34:19;1.20;99.90
15357;DHT22;7778;48.792;9.260;2023-01-23T09:37:05;1.40;99.90
15357;DHT22;7778;48.792;9.260;2023-01-23T09:39:52;1.40;99.90
15357;DHT22;7778;48.792;9.260;2023-01-23T09:42:37;1.40;99.90
15357;DHT22;7778;48.792;9.260;2023-01-23T09:45:24;1.40;99.90
15357;DHT22;7778;48.792;9.260;2023-01-23T09:48:19;1.40;99.90
15357;DHT22;7778;48.792;9.260;2023-01-23T09:51:11;1.40;99.90
15357;DHT22;7778;48.792;9.260;2023-01-23T09:54:06;1.30;99.90
15357;DHT22;7778;48.792;9.260;2023-01-23T09:57:05;1.20;99.90
15357;DHT22;7778;48.792;9.260;2023-01-23T10:00:03;1.20;99.90
15357;DHT22;7778;48.792;9.260;2023-01-23T10:02:50;1.30;99.90
15357;DHT22;7778;48.792;9.260;2023-01-23T10:05:42;1.40;99.90
15357;DHT22;7778;48.792;9.260;2023-01-23T10:08:38;1.50;99.90
15357;DHT22;7778;48.792;9.260;2023-01-23T10:11:34;1.80;99.90
15357;DHT22;7778;48.792;9.260;2023-01-23T10:14:42;1.80;99.90
15357;DHT22;7778;48.792;9.260;2023-01-23T10:17:42;1.70;99.90
15357;DHT22;7778;48.792;9.260;2023-01-23T10:20:49;1.60;99.90
15357;DHT22;7778;48.792;9.260;2023-01-23T10:23:47;1.60;99.90
15357;DHT22;7778;48.792;9.260;2023-01-23T10:26:42;1.80;99.90
15357;DHT22;7778;48.792;9.260;2023-01-23T10:29:33;2.10;99.90
15357;DHT22;7778;48.792;9.260;2023-01-23T10:32:24;2.30;99.90
15357;DHT22;7778;48.792;9.260;2023-01-23T10:35:15;2.40;99.90
15357;DHT22;7778;48.792;9.260;2023-01-23T10:38:10;2.10;99.90
15357;DHT22;7778;48.792;9.260;2023-01-23T10:41:01;2.00;99.90
15357;DHT22;7778;48.792;9.260;2023-01-23T10:44:12;1.90;99.90
15357;DHT22;7778;48.792;9.260;2023-01-23T10:47:03;1.70;99.90
15357;DHT22;7778;48.792;9.260;2023-01-23T10:49:56;2.10;99.90
15357;DHT22;7778;48.792;9.260;2023-01-23T10:52:43;2.10;99.90
15357;DHT22;7778;48.792;9.260;2023-01-23T10:55:30;2.10;99.90
15357;DHT22;7778;48.792;9.260;2023-01-23T10:58:31;2.00;99.90
15357;DHT22;7778;48.792;9.260;2023-01-23T11:01:24;1.90;99.90
15357;DHT22;7778;48.792;9.260;2023-01-23T11:04:18;1.90;99.90
15357;DHT22;7778;48.792;9.260;2023-01-23T11:07:11;1.80;99.90
15357;DHT22;7778;48.792;9.260;2023-01-23T11:09:59;1.90;99.90
15357;DHT22;7778;48.792;9.260;2023-01-23T11:12:49;2.00;99.90
15357;DHT22;7778;48.792;9.260;2023-01-23T11:15:38;2.10;99.90
15357;DHT22;7778;48.792;9.260;2023-01-23T11:18:30;2.20;99.90
15357;DHT22;7778;48.792;9.260;2023-01-23T11:21:23;2.30;99.90
15357;DHT22;7778;48.792;9.260;2023-01-23T11:24:18;2.30;99.90
15357;DHT22;7778;48.792;9.260;2023-01-23T11:27:16;2.40;99.90
15357;DHT22;7778;48.792;9.260;2023-01-23T11:30:26;2.40;99.90
15357;DHT22;7778;48.792;9.260;2023-01-23T11:33:28;2.50;99.90
15357;DHT22;7778;48.792;9.260;2023-01-23T11:36:37;2.40;99.90
15357;DHT22;7778;48.792;9.260;2023-01-23T11:39:39;2.50;99.90
15357;DHT22;7778;48.792;9.260;2023-01-23T11:42:29;2.40;99.90
15357;DHT22;7778;48.792;9.260;2023-01-23T11:45:27;2.30;99.90
15357;DHT22;7778;48.792;9.260;2023-01-23T11:48:35;2.40;99.90
15357;DHT22;7778;48.792;9.260;2023-01-23T11:51:35;2.30;99.90
15357;DHT22;7778;48.792;9.260;2023-01-23T11:54:44;2.30;99.90
15357;DHT22;7778;48.792;9.260;2023-01-23T11:57:44;2.20;99.90
15357;DHT22;7778;48.792;9.260;2023-01-23T12:00:44;2.20;99.90
15357;DHT22;7778;48.792;9.260;2023-01-23T12:04:02;2.50;99.90
15357;DHT22;7778;48.792;9.260;2023-01-23T12:07:10;2.30;99.90
15357;DHT22;7778;48.792;9.260;2023-01-23T12:10:13;2.20;99.90
15357;DHT22;7778;48.792;9.260;2023-01-23T12:13:21;2.30;99.90
15357;DHT22;7778;48.792;9.260;2023-01-23T12:16:21;2.20;99.90
15357;DHT22;7778;48.792;9.260;2023-01-23T12:19:19;2.20;99.90
15357;DHT22;7778;48.792;9.260;2023-01-23T12:22:17;2.30;99.90
15357;DHT22;7778;48.792;9.260;2023-01-23T12:25:21;2.50;99.90
15357;DHT22;7778;48.792;9.260;2023-01-23T12:28:19;2.70;99.90
15357;DHT22;7778;48.792;9.260;2023-01-23T12:31:30;3.00;99.90
15357;DHT22;7778;48.792;9.260;2023-01-23T12:34:49;2.80;99.90
15357;DHT22;7778;48.792;9.260;2023-01-23T12:37:51;3.00;99.90
15357;DHT22;7778;48.792;9.260;2023-01-23T12:40:51;3.10;99.90
15357;DHT22;7778;48.792;9.260;2023-01-23T12:43:44;3.30;99.90
15357;DHT22;7778;48.792;9.260;2023-01-23T12:46:35;3.20;99.90
15357;DHT22;7778;48.792;9.260;2023-01-23T12:49:27;3.30;99.90
15357;DHT22;7778;48.792;9.260;2023-01-23T12:52:19;3.60;99.90
15357;DHT22;7778;48.792;9.260;2023-01-23T12:55:17;3.60;99.90
15357;DHT22;7778;48.792;9.260;2023-01-23T12:58:06;3.70;99.90
15357;DHT22;7778;48.792;9.260;2023-01-23T13:04:40;3.50;99.90
15357;DHT22;7778;48.792;9.260;2023-01-23T13:07:41;3.40;99.90
15357;DHT22;7778;48.792;9.260;2023-01-23T13:10:58;3.40;99.90
15357;DHT22;7778;48.792;9.260;2023-01-23T13:14:15;3.40;99.90
15357;DHT22;7778;48.792;9.260;2023-01-23T13:17:14;3.50;99.90
15357;DHT22;7778;48.792;9.260;2023-01-23T13:20:24;3.50;99.90
15357;DHT22;7778;48.792;9.260;2023-01-23T13:23:30;3.50;99.90
15357;DHT22;7778;48.792;9.260;2023-01-23T13:26:30;3.90;99.90
15357;DHT22;7778;48.792;9.260;2023-01-23T13:29:45;3.90;99.90
15357;DHT22;7778;48.792;9.260;2023-01-23T13:32:33;3.50;99.90
15357;DHT22;7778;48.792;9.260;2023-01-23T13:35:51;3.20;99.90
15357;DHT22;7778;48.792;9.260;2023-01-23T13:38:39;3.00;99.90
15357;DHT22;7778;48.792;9.260;2023-01-23T13:41:29;2.90;99.90
15357;DHT22;7778;48.792;9.260;2023-01-23T13:44:19;2.80;99.90
15357;DHT22;7778;48.792;9.260;2023-01-23T13:47:18;2.80;99.90
15357;DHT22;7778;48.792;9.260;2023-01-23T13:50:29;2.90;99.90
15357;DHT22;7778;48.792;9.260;2023-01-23T13:53:23;3.00;99.90
15357;DHT22;7778;48.792;9.260;2023-01-23T13:56:28;3.00;99.90
15357;DHT22;7778;48.792;9.260;2023-01-23T13:59:31;3.20;99.90
15357;DHT22;7778;48.792;9.260;2023-01-23T14:02:24;3.20;99.90
15357;DHT22;7778;48.792;9.260;2023-01-23T14:05:32;3.20;99.90
15357;DHT22;7778;48.792;9.260;2023-01-23T14:08:21;3.20;99.90
15357;DHT22;7778;48.792;9.260;2023-01-23T14:11:12;3.20;99.90
15357;DHT22;7778;48.792;9.260;2023-01-23T14:14:00;3.00;99.90
15357;DHT22;7778;48.792;9.260;2023-01-23T14:17:02;3.00;99.90
15357;DHT22;7778;48.792;9.260;2023-01-23T14:19:53;2.90;99.90
15357;DHT22;7778;48.792;9.260;2023-01-23T14:22:41;2.60;99.90
15357;DHT22;7778;48.792;9.260;2023-01-23T14:25:27;2.90;99.90
15357;DHT22;7778;48.792;9.260;2023-01-23T14:28:16;2.80;99.90
15357;DHT22;7778;48.792;9.260;2023-01-23T14:31:03;2.80;99.90
15357;DHT22;7778;48.792;9.260;2023-01-23T14:33:57;2.70;99.90
15357;DHT22;7778;48.792;9.260;2023-01-23T14:36:48;2.60;99.90
15357;DHT22;7778;48.792;9.260;2023-01-23T14:39:35;2.60;99.90
15357;DHT22;7778;48.792;9.260;2023-01-23T14:42:24;2.60;99.90
15357;DHT22;7778;48.792;9.260;2023-01-23T14:45:12;2.60;99.90
15357;DHT22;7778;48.792;9.260;2023-01-23T14:47:59;2.60;99.90
15357;DHT22;7778;48.792;9.260;2023-01-23T14:50:47;2.60;99.90
15357;DHT22;7778;48.792;9.260;2023-01-23T14:53:32;2.60;99.90
15357;DHT22;7778;48.792;9.260;2023-01-23T14:56:18;2.70;99.90
15357;DHT22;7778;48.792;9.260;2023-01-23T14:59:15;2.90;99.90
15357;DHT22;7778;48.792;9.260;2023-01-23T15:02:24;2.70;99.90
15357;DHT22;7778;48.792;9.260;2023-01-23T15:05:19;2.70;99.90
15357;DHT22;7778;48.792;9.260;2023-01-23T15:08:18;2.80;99.90
15357;DHT22;7778;48.792;9.260;2023-01-23T15:11:07;2.90;99.90
15357;DHT22;7778;48.792;9.260;2023-01-23T15:13:56;2.70;99.90
15357;DHT22;7778;48.792;9.260;2023-01-23T15:16:44;2.60;99.90
15357;DHT22;7778;48.792;9.260;2023-01-23T15:19:32;2.60;99.90
15357;DHT22;7778;48.792;9.260;2023-01-23T15:22:24;2.60;99.90
15357;DHT22;7778;48.792;9.260;2023-01-23T15:25:28;2.50;99.90
15357;DHT22;7778;48.792;9.260;2023-01-23T15:28:28;2.50;99.90
15357;DHT22;7778;48.792;9.260;2023-01-23T15:31:25;2.50;99.90
15357;DHT22;7778;48.792;9.260;2023-01-23T15:34:21;2.60;99.90
15357;DHT22;7778;48.792;9.260;2023-01-23T15:37:20;2.40;99.90
15357;DHT22;7778;48.792;9.260;2023-01-23T15:40:14;2.40;99.90
15357;DHT22;7778;48.792;9.260;2023-01-23T15:43:05;2.40;99.90
15357;DHT22;7778;48.792;9.260;2023-01-23T15:45:55;2.40;99.90
15357;DHT22;7778;48.792;9.260;2023-01-23T15:48:40;2.30;99.90
15357;DHT22;7778;48.792;9.260;2023-01-23T15:51:26;2.40;99.90
15357;DHT22;7778;48.792;9.260;2023-01-23T15:54:19;2.30;99.90
15357;DHT22;7778;48.792;9.260;2023-01-23T15:57:10;2.40;99.90
15357;DHT22;7778;48.792;9.260;2023-01-23T15:59:58;2.30;99.90
15357;DHT22;7778;48.792;9.260;2023-01-23T16:02:46;2.40;99.90
15357;DHT22;7778;48.792;9.260;2023-01-23T16:05:34;2.40;99.90
15357;DHT22;7778;48.792;9.260;2023-01-23T16:08:21;2.50;99.90
15357;DHT22;7778;48.792;9.260;2023-01-23T16:11:08;2.50;99.90
15357;DHT22;7778;48.792;9.260;2023-01-23T16:13:54;2.20;99.90
15357;DHT22;7778;48.792;9.260;2023-01-23T16:16:41;2.20;99.90
15357;DHT22;7778;48.792;9.260;2023-01-23T16:19:27;2.20;99.90
15357;DHT22;7778;48.792;9.260;2023-01-23T16:22:14;2.30;99.90
15357;DHT22;7778;48.792;9.260;2023-01-23T16:25:02;2.30;99.90
15357;DHT22;7778;48.792;9.260;2023-01-23T16:27:48;2.20;99.90
15357;DHT22;7778;48.792;9.260;2023-01-23T16:30:33;2.30;99.90
15357;DHT22;7778;48.792;9.260;2023-01-23T16:33:21;2.20;99.90
15357;DHT22;7778;48.792;9.260;2023-01-23T16:36:10;2.30;99.90
15357;DHT22;7778;48.792;9.260;2023-01-23T16:38:58;2.30;99.90
15357;DHT22;7778;48.792;9.260;2023-01-23T16:41:44;2.30;99.90
15357;DHT22;7778;48.792;9.260;2023-01-23T16:44:29;2.30;99.90
15357;DHT22;7778;48.792;9.260;2023-01-23T16:47:15;2.30;99.90
15357;DHT22;7778;48.792;9.260;2023-01-23T16:50:02;2.30;99.90
15357;DHT22;7778;48.792;9.260;2023-01-23T16:52:53;2.30;99.90
15357;DHT22;7778;48.792;9.260;2023-01-23T16:55:41;2.30;99.90
15357;DHT22;7778;48.792;9.260;2023-01-23T16:58:28;2.30;99.90
15357;DHT22;7778;48.792;9.260;2023-01-23T17:01:18;2.40;99.90
15357;DHT22;7778;48.792;9.260;2023-01-23T17:04:05;2.30;99.90
15357;DHT22;7778;48.792;9.260;2023-01-23T17:06:53;2.30;99.90
15357;DHT22;7778;48.792;9.260;2023-01-23T17:09:38;2.40;99.90
15357;DHT22;7778;48.792;9.260;2023-01-23T17:12:26;2.60;99.90
15357;DHT22;7778;48.792;9.260;2023-01-23T17:15:18;2.30;99.90
15357;DHT22;7778;48.792;9.260;2023-01-23T17:18:15;2.30;99.90
15357;DHT22;7778;48.792;9.260;2023-01-23T17:21:04;2.40;99.90
15357;DHT22;7778;48.792;9.260;2023-01-23T17:23:52;2.60;99.90
15357;DHT22;7778;48.792;9.260;2023-01-23T17:26:38;2.40;99.90
15357;DHT22;7778;48.792;9.260;2023-01-23T17:29:23;2.50;99.90
15357;DHT22;7778;48.792;9.260;2023-01-23T17:32:21;2.80;99.90
15357;DHT22;7778;48.792;9.260;2023-01-23T17:35:17;2.60;99.90
15357;DHT22;7778;48.792;9.260;2023-01-23T17:38:07;2.60;99.90
15357;DHT22;7778;48.792;9.260;2023-01-23T17:41:01;2.60;99.90
15357;DHT22;7778;48.792;9.260;2023-01-23T17:43:47;2.50;99.90
15357;DHT22;7778;48.792;9.260;2023-01-23T17:46:35;2.90;99.90
15357;DHT22;7778;48.792;9.260;2023-01-23T17:49:27;2.80;99.90
15357;DHT22;7778;48.792;9.260;2023-01-23T17:52:13;2.90;99.90
15357;DHT22;7778;48.792;9.260;2023-01-23T17:54:59;2.70;99.90
15357;DHT22;7778;48.792;9.260;2023-01-23T17:57:47;2.80;99.90
15357;DHT22;7778;48.792;9.260;2023-01-23T18:00:32;2.80;99.90
15357;DHT22;7778;48.792;9.260;2023-01-23T18:03:20;2.80;99.90
15357;DHT22;7778;48.792;9.260;2023-01-23T18:06:07;3.00;99.90
15357;DHT22;7778;48.792;9.260;2023-01-23T18:08:54;2.80;99.90
15357;DHT22;7778;48.792;9.260;2023-01-23T18:11:43;2.80;99.90
15357;DHT22;7778;48.792;9.260;2023-01-23T18:14:42;2.70;99.90
15357;DHT22;7778;48.792;9.260;2023-01-23T18:17:36;2.60;99.90
15357;DHT22;7778;48.792;9.260;2023-01-23T18:20:26;2.70;99.90
15357;DHT22;7778;48.792;9.260;2023-01-23T18:23:14;2.70;99.90
15357;DHT22;7778;48.792;9.260;2023-01-23T18:26:14;2.80;99.90
15357;DHT22;7778;48.792;9.260;2023-01-23T18:29:17;2.60;99.90
15357;DHT22;7778;48.792;9.260;2023-01-23T18:32:38;2.60;99.90
15357;DHT22;7778;48.792;9.260;2023-01-23T18:35:43;2.70;99.90